sensor_id;sensor_type;location;lat;lon;timestamp;P1;durP1;ratioP1;P2;durP2;ratioP2
37777;SDS011;23615;51.506;7.678;2023-04-07T00:01:35;1.97;;;1.87;;
37777;SDS011;23615;51.506;7.678;2023-04-07T00:04:00;1.53;;;1.43;;
37777;SDS011;23615;51.506;7.678;2023-04-07T00:06:26;1.93;;;1.60;;
37777;SDS011;23615;51.506;7.678;2023-04-07T00:08:51;1.87;;;1.60;;
37777;SDS011;23615;51.506;7.678;2023-04-07T00:11:16;1.70;;;1.60;;
37777;SDS011;23615;51.506;7.678;2023-04-07T00:13:42;1.60;;;1.50;;
37777;SDS011;23615;51.506;7.678;2023-04-07T00:16:07;1.77;;;1.67;;
37777;SDS011;23615;51.506;7.678;2023-04-07T00:18:33;1.67;;;1.57;;
37777;SDS011;23615;51.506;7.678;2023-04-07T00:20:58;1.60;;;1.50;;
37777;SDS011;23615;51.506;7.678;2023-04-07T00:23:23;1.60;;;1.50;;
37777;SDS011;23615;51.506;7.678;2023-04-07T00:25:49;1.50;;;1.40;;
37777;SDS011;23615;51.506;7.678;2023-04-07T00:28:14;1.50;;;1.40;;
37777;SDS011;23615;51.506;7.678;2023-04-07T00:30:39;1.17;;;1.00;;
37777;SDS011;23615;51.506;7.678;2023-04-07T00:33:04;1.30;;;1.20;;
37777;SDS011;23615;51.506;7.678;2023-04-07T00:35:30;1.53;;;1.43;;
37777;SDS011;23615;51.506;7.678;2023-04-07T00:37:55;1.60;;;1.50;;
37777;SDS011;23615;51.506;7.678;2023-04-07T00:40:21;1.70;;;1.60;;
37777;SDS011;23615;51.506;7.678;2023-04-07T00:42:46;1.10;;;1.10;;
37777;SDS011;23615;51.506;7.678;2023-04-07T00:45:11;1.40;;;1.20;;
37777;SDS011;23615;51.506;7.678;2023-04-07T00:47:37;1.00;;;1.00;;
37777;SDS011;23615;51.506;7.678;2023-04-07T00:50:03;1.20;;;1.17;;
37777;SDS011;23615;51.506;7.678;2023-04-07T00:52:29;1.30;;;1.08;;
37777;SDS011;23615;51.506;7.678;2023-04-07T00:54:56;1.30;;;1.20;;
37777;SDS011;23615;51.506;7.678;2023-04-07T00:57:21;1.23;;;1.00;;
37777;SDS011;23615;51.506;7.678;2023-04-07T00:59:48;1.90;;;1.80;;
37777;SDS011;23615;51.506;7.678;2023-04-07T01:02:20;1.30;;;1.20;;
37777;SDS011;23615;51.506;7.678;2023-04-07T01:04:55;0.98;;;0.98;;
37777;SDS011;23615;51.506;7.678;2023-04-07T01:07:47;1.20;;;1.10;;
37777;SDS011;23615;51.506;7.678;2023-04-07T01:10:55;1.13;;;0.93;;
37777;SDS011;23615;51.506;7.678;2023-04-07T01:13:42;1.10;;;1.00;;
37777;SDS011;23615;51.506;7.678;2023-04-07T01:16:18;1.23;;;1.23;;
37777;SDS011;23615;51.506;7.678;2023-04-07T01:19:15;1.47;;;1.37;;
37777;SDS011;23615;51.506;7.678;2023-04-07T01:21:56;1.67;;;1.58;;
37777;SDS011;23615;51.506;7.678;2023-04-07T01:26:59;1.15;;;1.05;;
37777;SDS011;23615;51.506;7.678;2023-04-07T01:29:53;1.50;;;1.15;;
37777;SDS011;23615;51.506;7.678;2023-04-07T01:32:20;0.93;;;0.90;;
37777;SDS011;23615;51.506;7.678;2023-04-07T01:34:48;1.30;;;1.20;;
37777;SDS011;23615;51.506;7.678;2023-04-07T01:37:16;1.20;;;1.10;;
37777;SDS011;23615;51.506;7.678;2023-04-07T01:39:42;1.00;;;1.00;;
37777;SDS011;23615;51.506;7.678;2023-04-07T01:42:07;1.70;;;1.60;;
37777;SDS011;23615;51.506;7.678;2023-04-07T01:44:34;1.30;;;1.20;;
37777;SDS011;23615;51.506;7.678;2023-04-07T01:47:01;0.95;;;0.90;;
37777;SDS011;23615;51.506;7.678;2023-04-07T01:49:27;1.40;;;1.30;;
37777;SDS011;23615;51.506;7.678;2023-04-07T01:51:54;1.20;;;1.10;;
37777;SDS011;23615;51.506;7.678;2023-04-07T01:54:21;1.42;;;1.33;;
37777;SDS011;23615;51.506;7.678;2023-04-07T01:56:47;1.25;;;1.20;;
37777;SDS011;23615;51.506;7.678;2023-04-07T01:59:13;1.20;;;1.20;;
37777;SDS011;23615;51.506;7.678;2023-04-07T02:01:38;1.02;;;1.00;;
37777;SDS011;23615;51.506;7.678;2023-04-07T02:04:05;1.40;;;0.80;;
37777;SDS011;23615;51.506;7.678;2023-04-07T02:06:52;1.17;;;1.08;;
37777;SDS011;23615;51.506;7.678;2023-04-07T02:09:20;1.13;;;0.95;;
37777;SDS011;23615;51.506;7.678;2023-04-07T02:11:48;1.10;;;1.10;;
37777;SDS011;23615;51.506;7.678;2023-04-07T02:14:16;1.37;;;1.27;;
37777;SDS011;23615;51.506;7.678;2023-04-07T02:16:44;1.27;;;1.17;;
37777;SDS011;23615;51.506;7.678;2023-04-07T02:19:10;1.15;;;1.05;;
37777;SDS011;23615;51.506;7.678;2023-04-07T02:21:36;1.70;;;1.40;;
37777;SDS011;23615;51.506;7.678;2023-04-07T02:24:04;1.52;;;1.42;;
37777;SDS011;23615;51.506;7.678;2023-04-07T02:26:34;1.48;;;1.38;;
37777;SDS011;23615;51.506;7.678;2023-04-07T02:29:00;1.40;;;1.30;;
37777;SDS011;23615;51.506;7.678;2023-04-07T02:31:25;1.60;;;1.50;;
37777;SDS011;23615;51.506;7.678;2023-04-07T02:33:51;1.27;;;1.10;;
37777;SDS011;23615;51.506;7.678;2023-04-07T02:36:16;1.00;;;1.00;;
37777;SDS011;23615;51.506;7.678;2023-04-07T02:38:41;1.27;;;0.90;;
37777;SDS011;23615;51.506;7.678;2023-04-07T02:41:06;1.73;;;1.03;;
37777;SDS011;23615;51.506;7.678;2023-04-07T02:43:32;0.80;;;0.80;;
37777;SDS011;23615;51.506;7.678;2023-04-07T02:45:57;1.03;;;1.00;;
37777;SDS011;23615;51.506;7.678;2023-04-07T02:48:22;1.60;;;1.47;;
37777;SDS011;23615;51.506;7.678;2023-04-07T02:50:47;1.60;;;1.50;;
37777;SDS011;23615;51.506;7.678;2023-04-07T02:53:13;1.43;;;1.33;;
37777;SDS011;23615;51.506;7.678;2023-04-07T02:55:38;1.10;;;0.90;;
37777;SDS011;23615;51.506;7.678;2023-04-07T02:58:03;1.00;;;1.00;;
37777;SDS011;23615;51.506;7.678;2023-04-07T03:00:28;2.10;;;1.90;;
37777;SDS011;23615;51.506;7.678;2023-04-07T03:02:54;0.85;;;0.85;;
37777;SDS011;23615;51.506;7.678;2023-04-07T03:05:19;1.30;;;1.20;;
37777;SDS011;23615;51.506;7.678;2023-04-07T03:07:45;1.70;;;1.42;;
37777;SDS011;23615;51.506;7.678;2023-04-07T03:10:10;1.38;;;1.27;;
37777;SDS011;23615;51.506;7.678;2023-04-07T03:12:35;1.23;;;1.23;;
37777;SDS011;23615;51.506;7.678;2023-04-07T03:15:00;0.80;;;0.80;;
37777;SDS011;23615;51.506;7.678;2023-04-07T03:17:26;0.83;;;0.83;;
37777;SDS011;23615;51.506;7.678;2023-04-07T03:19:51;1.00;;;1.00;;
37777;SDS011;23615;51.506;7.678;2023-04-07T03:22:16;0.87;;;0.87;;
37777;SDS011;23615;51.506;7.678;2023-04-07T03:24:42;0.80;;;0.80;;
37777;SDS011;23615;51.506;7.678;2023-04-07T03:27:07;1.33;;;1.23;;
37777;SDS011;23615;51.506;7.678;2023-04-07T03:29:32;1.47;;;1.37;;
37777;SDS011;23615;51.506;7.678;2023-04-07T03:31:57;1.30;;;1.20;;
37777;SDS011;23615;51.506;7.678;2023-04-07T03:34:23;1.40;;;1.30;;
37777;SDS011;23615;51.506;7.678;2023-04-07T03:36:48;1.20;;;1.10;;
37777;SDS011;23615;51.506;7.678;2023-04-07T03:39:13;1.30;;;1.20;;
37777;SDS011;23615;51.506;7.678;2023-04-07T03:41:38;1.40;;;1.30;;
37777;SDS011;23615;51.506;7.678;2023-04-07T03:44:04;1.10;;;1.10;;
37777;SDS011;23615;51.506;7.678;2023-04-07T03:46:29;1.97;;;1.77;;
37777;SDS011;23615;51.506;7.678;2023-04-07T03:48:55;1.60;;;1.50;;
37777;SDS011;23615;51.506;7.678;2023-04-07T03:51:20;2.17;;;2.07;;
37777;SDS011;23615;51.506;7.678;2023-04-07T03:53:45;1.83;;;1.73;;
37777;SDS011;23615;51.506;7.678;2023-04-07T03:56:11;1.67;;;1.57;;
37777;SDS011;23615;51.506;7.678;2023-04-07T03:58:36;1.73;;;1.63;;
37777;SDS011;23615;51.506;7.678;2023-04-07T04:01:02;1.58;;;1.48;;
37777;SDS011;23615;51.506;7.678;2023-04-07T04:03:28;1.40;;;1.30;;
37777;SDS011;23615;51.506;7.678;2023-04-07T04:05:53;1.40;;;1.30;;
37777;SDS011;23615;51.506;7.678;2023-04-07T04:08:18;1.27;;;1.17;;
37777;SDS011;23615;51.506;7.678;2023-04-07T04:10:44;1.30;;;1.20;;
37777;SDS011;23615;51.506;7.678;2023-04-07T04:13:10;1.63;;;1.40;;
37777;SDS011;23615;51.506;7.678;2023-04-07T04:15:35;1.98;;;1.88;;
37777;SDS011;23615;51.506;7.678;2023-04-07T04:18:00;1.63;;;1.52;;
37777;SDS011;23615;51.506;7.678;2023-04-07T04:20:26;1.95;;;1.75;;
37777;SDS011;23615;51.506;7.678;2023-04-07T04:22:51;1.70;;;1.60;;
37777;SDS011;23615;51.506;7.678;2023-04-07T04:25:16;1.97;;;1.50;;
37777;SDS011;23615;51.506;7.678;2023-04-07T04:27:42;1.40;;;1.30;;
37777;SDS011;23615;51.506;7.678;2023-04-07T04:30:07;3.40;;;3.10;;
37777;SDS011;23615;51.506;7.678;2023-04-07T04:32:33;2.45;;;2.25;;
37777;SDS011;23615;51.506;7.678;2023-04-07T04:34:58;2.85;;;2.63;;
37777;SDS011;23615;51.506;7.678;2023-04-07T04:37:24;2.60;;;2.40;;
37777;SDS011;23615;51.506;7.678;2023-04-07T04:39:50;2.40;;;2.30;;
37777;SDS011;23615;51.506;7.678;2023-04-07T04:42:15;2.30;;;2.10;;
37777;SDS011;23615;51.506;7.678;2023-04-07T04:44:40;2.17;;;1.97;;
37777;SDS011;23615;51.506;7.678;2023-04-07T04:47:06;2.40;;;2.20;;
37777;SDS011;23615;51.506;7.678;2023-04-07T04:49:31;1.83;;;1.73;;
37777;SDS011;23615;51.506;7.678;2023-04-07T04:51:56;3.10;;;2.90;;
37777;SDS011;23615;51.506;7.678;2023-04-07T04:54:22;2.60;;;2.40;;
37777;SDS011;23615;51.506;7.678;2023-04-07T04:56:47;2.23;;;2.03;;
37777;SDS011;23615;51.506;7.678;2023-04-07T04:59:12;1.80;;;1.70;;
37777;SDS011;23615;51.506;7.678;2023-04-07T05:01:38;1.77;;;1.67;;
37777;SDS011;23615;51.506;7.678;2023-04-07T05:04:03;2.08;;;1.58;;
37777;SDS011;23615;51.506;7.678;2023-04-07T05:06:28;1.17;;;1.13;;
37777;SDS011;23615;51.506;7.678;2023-04-07T05:08:53;2.30;;;2.10;;
37777;SDS011;23615;51.506;7.678;2023-04-07T05:11:19;2.00;;;1.90;;
37777;SDS011;23615;51.506;7.678;2023-04-07T05:13:45;1.55;;;1.45;;
37777;SDS011;23615;51.506;7.678;2023-04-07T05:16:11;1.45;;;1.35;;
37777;SDS011;23615;51.506;7.678;2023-04-07T05:18:36;1.75;;;1.65;;
37777;SDS011;23615;51.506;7.678;2023-04-07T05:21:02;2.17;;;2.00;;
37777;SDS011;23615;51.506;7.678;2023-04-07T05:23:27;3.17;;;2.88;;
37777;SDS011;23615;51.506;7.678;2023-04-07T05:25:52;1.70;;;1.60;;
37777;SDS011;23615;51.506;7.678;2023-04-07T05:28:18;1.40;;;1.30;;
37777;SDS011;23615;51.506;7.678;2023-04-07T05:30:43;1.30;;;1.20;;
37777;SDS011;23615;51.506;7.678;2023-04-07T05:33:08;1.13;;;1.00;;
37777;SDS011;23615;51.506;7.678;2023-04-07T05:35:33;1.30;;;1.27;;
37777;SDS011;23615;51.506;7.678;2023-04-07T05:37:59;1.83;;;1.73;;
37777;SDS011;23615;51.506;7.678;2023-04-07T05:40:24;1.70;;;1.60;;
37777;SDS011;23615;51.506;7.678;2023-04-07T05:42:49;1.33;;;1.23;;
37777;SDS011;23615;51.506;7.678;2023-04-07T05:45:15;1.42;;;1.33;;
37777;SDS011;23615;51.506;7.678;2023-04-07T05:47:40;1.60;;;1.50;;
37777;SDS011;23615;51.506;7.678;2023-04-07T05:50:06;1.20;;;1.20;;
37777;SDS011;23615;51.506;7.678;2023-04-07T05:52:31;1.58;;;1.48;;
37777;SDS011;23615;51.506;7.678;2023-04-07T05:54:56;1.30;;;1.20;;
37777;SDS011;23615;51.506;7.678;2023-04-07T05:57:22;1.60;;;1.50;;
37777;SDS011;23615;51.506;7.678;2023-04-07T05:59:47;1.60;;;1.50;;
37777;SDS011;23615;51.506;7.678;2023-04-07T06:02:12;1.37;;;1.27;;
37777;SDS011;23615;51.506;7.678;2023-04-07T06:04:38;1.07;;;1.00;;
37777;SDS011;23615;51.506;7.678;2023-04-07T06:07:03;1.08;;;1.05;;
37777;SDS011;23615;51.506;7.678;2023-04-07T06:09:29;1.30;;;1.20;;
37777;SDS011;23615;51.506;7.678;2023-04-07T06:11:54;1.23;;;1.20;;
37777;SDS011;23615;51.506;7.678;2023-04-07T06:14:20;1.30;;;1.20;;
37777;SDS011;23615;51.506;7.678;2023-04-07T06:16:45;1.20;;;1.20;;
37777;SDS011;23615;51.506;7.678;2023-04-07T06:19:11;1.90;;;1.70;;
37777;SDS011;23615;51.506;7.678;2023-04-07T06:21:36;1.80;;;1.70;;
37777;SDS011;23615;51.506;7.678;2023-04-07T06:24:01;1.30;;;1.10;;
37777;SDS011;23615;51.506;7.678;2023-04-07T06:26:27;1.30;;;1.20;;
37777;SDS011;23615;51.506;7.678;2023-04-07T06:28:52;1.37;;;1.27;;
37777;SDS011;23615;51.506;7.678;2023-04-07T06:31:18;1.43;;;1.33;;
37777;SDS011;23615;51.506;7.678;2023-04-07T06:33:44;1.87;;;1.77;;
37777;SDS011;23615;51.506;7.678;2023-04-07T06:36:10;1.52;;;1.42;;
37777;SDS011;23615;51.506;7.678;2023-04-07T06:38:35;1.50;;;1.40;;
37777;SDS011;23615;51.506;7.678;2023-04-07T06:41:01;1.60;;;1.50;;
37777;SDS011;23615;51.506;7.678;2023-04-07T06:43:26;1.70;;;1.60;;
37777;SDS011;23615;51.506;7.678;2023-04-07T06:45:51;1.70;;;1.60;;
37777;SDS011;23615;51.506;7.678;2023-04-07T06:48:17;1.53;;;1.43;;
37777;SDS011;23615;51.506;7.678;2023-04-07T06:50:45;1.40;;;1.30;;
37777;SDS011;23615;51.506;7.678;2023-04-07T06:53:13;2.08;;;1.98;;
37777;SDS011;23615;51.506;7.678;2023-04-07T06:55:38;1.83;;;1.73;;
37777;SDS011;23615;51.506;7.678;2023-04-07T06:58:03;1.73;;;1.60;;
37777;SDS011;23615;51.506;7.678;2023-04-07T07:00:28;1.60;;;1.50;;
37777;SDS011;23615;51.506;7.678;2023-04-07T07:02:55;2.30;;;2.10;;
37777;SDS011;23615;51.506;7.678;2023-04-07T07:05:21;1.35;;;1.25;;
37777;SDS011;23615;51.506;7.678;2023-04-07T07:07:47;1.77;;;1.67;;
37777;SDS011;23615;51.506;7.678;2023-04-07T07:10:13;1.83;;;1.73;;
37777;SDS011;23615;51.506;7.678;2023-04-07T07:12:38;1.53;;;1.43;;
37777;SDS011;23615;51.506;7.678;2023-04-07T07:15:03;1.80;;;1.70;;
37777;SDS011;23615;51.506;7.678;2023-04-07T07:17:29;1.38;;;1.30;;
37777;SDS011;23615;51.506;7.678;2023-04-07T07:19:54;1.87;;;1.70;;
37777;SDS011;23615;51.506;7.678;2023-04-07T07:22:20;1.90;;;1.80;;
37777;SDS011;23615;51.506;7.678;2023-04-07T07:24:45;1.35;;;1.25;;
37777;SDS011;23615;51.506;7.678;2023-04-07T07:27:11;1.40;;;1.30;;
37777;SDS011;23615;51.506;7.678;2023-04-07T07:29:36;1.30;;;1.20;;
37777;SDS011;23615;51.506;7.678;2023-04-07T07:32:01;1.10;;;1.00;;
37777;SDS011;23615;51.506;7.678;2023-04-07T07:34:26;1.40;;;1.30;;
37777;SDS011;23615;51.506;7.678;2023-04-07T07:36:51;0.90;;;0.80;;
37777;SDS011;23615;51.506;7.678;2023-04-07T07:39:17;1.30;;;1.20;;
37777;SDS011;23615;51.506;7.678;2023-04-07T07:41:42;1.88;;;1.38;;
37777;SDS011;23615;51.506;7.678;2023-04-07T07:44:07;1.37;;;1.27;;
37777;SDS011;23615;51.506;7.678;2023-04-07T07:46:33;2.10;;;2.00;;
37777;SDS011;23615;51.506;7.678;2023-04-07T07:48:58;2.37;;;2.17;;
37777;SDS011;23615;51.506;7.678;2023-04-07T07:51:23;3.30;;;3.00;;
37777;SDS011;23615;51.506;7.678;2023-04-07T07:53:48;3.30;;;3.00;;
37777;SDS011;23615;51.506;7.678;2023-04-07T07:56:14;4.17;;;3.63;;
37777;SDS011;23615;51.506;7.678;2023-04-07T07:58:39;4.00;;;3.60;;
37777;SDS011;23615;51.506;7.678;2023-04-07T08:01:05;4.93;;;4.43;;
37777;SDS011;23615;51.506;7.678;2023-04-07T08:03:30;4.17;;;3.87;;
37777;SDS011;23615;51.506;7.678;2023-04-07T08:05:55;4.45;;;4.05;;
37777;SDS011;23615;51.506;7.678;2023-04-07T08:08:21;4.28;;;3.90;;
37777;SDS011;23615;51.506;7.678;2023-04-07T08:10:46;3.38;;;3.08;;
37777;SDS011;23615;51.506;7.678;2023-04-07T08:13:11;3.77;;;3.47;;
37777;SDS011;23615;51.506;7.678;2023-04-07T08:15:38;5.20;;;4.60;;
37777;SDS011;23615;51.506;7.678;2023-04-07T08:18:03;4.53;;;4.10;;
37777;SDS011;23615;51.506;7.678;2023-04-07T08:20:30;4.20;;;3.72;;
37777;SDS011;23615;51.506;7.678;2023-04-07T08:22:56;5.60;;;4.70;;
37777;SDS011;23615;51.506;7.678;2023-04-07T08:25:21;4.47;;;4.07;;
37777;SDS011;23615;51.506;7.678;2023-04-07T08:27:46;4.23;;;3.63;;
37777;SDS011;23615;51.506;7.678;2023-04-07T08:30:11;4.37;;;3.97;;
37777;SDS011;23615;51.506;7.678;2023-04-07T08:32:40;5.00;;;4.28;;
37777;SDS011;23615;51.506;7.678;2023-04-07T08:35:06;4.07;;;3.78;;
37777;SDS011;23615;51.506;7.678;2023-04-07T08:37:32;4.13;;;3.83;;
37777;SDS011;23615;51.506;7.678;2023-04-07T08:39:58;4.95;;;4.38;;
37777;SDS011;23615;51.506;7.678;2023-04-07T08:42:27;5.00;;;4.17;;
37777;SDS011;23615;51.506;7.678;2023-04-07T08:44:57;4.25;;;3.85;;
37777;SDS011;23615;51.506;7.678;2023-04-07T08:47:26;4.73;;;4.33;;
37777;SDS011;23615;51.506;7.678;2023-04-07T08:49:55;3.83;;;3.53;;
37777;SDS011;23615;51.506;7.678;2023-04-07T08:52:22;3.50;;;3.20;;
37777;SDS011;23615;51.506;7.678;2023-04-07T08:54:58;3.97;;;3.22;;
37777;SDS011;23615;51.506;7.678;2023-04-07T08:57:27;2.90;;;2.70;;
37777;SDS011;23615;51.506;7.678;2023-04-07T08:59:54;3.53;;;3.22;;
37777;SDS011;23615;51.506;7.678;2023-04-07T09:02:21;2.67;;;2.47;;
37777;SDS011;23615;51.506;7.678;2023-04-07T09:04:47;3.47;;;3.00;;
37777;SDS011;23615;51.506;7.678;2023-04-07T09:07:13;3.73;;;3.43;;
37777;SDS011;23615;51.506;7.678;2023-04-07T09:09:38;3.10;;;2.90;;
37777;SDS011;23615;51.506;7.678;2023-04-07T09:12:03;3.17;;;2.97;;
37777;SDS011;23615;51.506;7.678;2023-04-07T09:14:29;3.70;;;3.40;;
37777;SDS011;23615;51.506;7.678;2023-04-07T09:16:54;3.67;;;3.33;;
37777;SDS011;23615;51.506;7.678;2023-04-07T09:19:20;3.30;;;3.03;;
37777;SDS011;23615;51.506;7.678;2023-04-07T09:21:51;3.07;;;2.87;;
37777;SDS011;23615;51.506;7.678;2023-04-07T09:24:27;3.55;;;3.35;;
37777;SDS011;23615;51.506;7.678;2023-04-07T09:29:33;3.60;;;3.30;;
37777;SDS011;23615;51.506;7.678;2023-04-07T09:31:58;3.67;;;3.37;;
37777;SDS011;23615;51.506;7.678;2023-04-07T09:34:24;3.93;;;3.60;;
37777;SDS011;23615;51.506;7.678;2023-04-07T09:36:52;4.00;;;3.70;;
37777;SDS011;23615;51.506;7.678;2023-04-07T09:39:17;3.67;;;3.38;;
37777;SDS011;23615;51.506;7.678;2023-04-07T09:41:43;3.83;;;3.53;;
37777;SDS011;23615;51.506;7.678;2023-04-07T09:44:09;4.00;;;3.70;;
37777;SDS011;23615;51.506;7.678;2023-04-07T09:46:34;5.35;;;4.55;;
37777;SDS011;23615;51.506;7.678;2023-04-07T09:49:00;4.68;;;4.28;;
37777;SDS011;23615;51.506;7.678;2023-04-07T09:51:30;4.57;;;4.17;;
37777;SDS011;23615;51.506;7.678;2023-04-07T09:53:57;4.90;;;4.50;;
37777;SDS011;23615;51.506;7.678;2023-04-07T09:56:23;4.50;;;4.10;;
37777;SDS011;23615;51.506;7.678;2023-04-07T09:58:49;4.50;;;4.10;;
37777;SDS011;23615;51.506;7.678;2023-04-07T10:01:17;4.15;;;3.85;;
37777;SDS011;23615;51.506;7.678;2023-04-07T10:03:45;4.00;;;3.47;;
37777;SDS011;23615;51.506;7.678;2023-04-07T10:06:11;3.38;;;2.72;;
37777;SDS011;23615;51.506;7.678;2023-04-07T10:08:38;3.60;;;3.05;;
37777;SDS011;23615;51.506;7.678;2023-04-07T10:11:04;2.78;;;2.58;;
37777;SDS011;23615;51.506;7.678;2023-04-07T10:13:31;2.80;;;2.60;;
37777;SDS011;23615;51.506;7.678;2023-04-07T10:15:57;2.83;;;2.63;;
37777;SDS011;23615;51.506;7.678;2023-04-07T10:18:30;2.55;;;2.35;;
37777;SDS011;23615;51.506;7.678;2023-04-07T10:20:59;2.63;;;2.38;;
37777;SDS011;23615;51.506;7.678;2023-04-07T10:23:42;2.88;;;2.67;;
37777;SDS011;23615;51.506;7.678;2023-04-07T10:26:21;2.33;;;2.20;;
37777;SDS011;23615;51.506;7.678;2023-04-07T10:28:50;2.10;;;1.90;;
37777;SDS011;23615;51.506;7.678;2023-04-07T10:31:21;1.33;;;1.23;;
37777;SDS011;23615;51.506;7.678;2023-04-07T10:33:48;0.98;;;0.98;;
37777;SDS011;23615;51.506;7.678;2023-04-07T10:36:18;1.35;;;1.17;;
37777;SDS011;23615;51.506;7.678;2023-04-07T10:41:39;0.77;;;0.70;;
37777;SDS011;23615;51.506;7.678;2023-04-07T10:44:06;1.17;;;1.08;;
37777;SDS011;23615;51.506;7.678;2023-04-07T10:49:14;1.60;;;0.90;;
37777;SDS011;23615;51.506;7.678;2023-04-07T10:51:43;1.33;;;0.90;;
37777;SDS011;23615;51.506;7.678;2023-04-07T10:59:27;0.80;;;0.60;;
37777;SDS011;23615;51.506;7.678;2023-04-07T11:02:30;1.20;;;0.60;;
37777;SDS011;23615;51.506;7.678;2023-04-07T11:04:48;0.82;;;0.70;;
37777;SDS011;23615;51.506;7.678;2023-04-07T11:07:14;0.90;;;0.75;;
37777;SDS011;23615;51.506;7.678;2023-04-07T11:09:40;0.60;;;0.60;;
37777;SDS011;23615;51.506;7.678;2023-04-07T11:12:06;0.65;;;0.63;;
37777;SDS011;23615;51.506;7.678;2023-04-07T11:14:32;1.00;;;1.00;;
37777;SDS011;23615;51.506;7.678;2023-04-07T11:16:58;0.85;;;0.70;;
37777;SDS011;23615;51.506;7.678;2023-04-07T11:19:25;0.70;;;0.70;;
37777;SDS011;23615;51.506;7.678;2023-04-07T11:22:05;1.00;;;0.70;;
37777;SDS011;23615;51.506;7.678;2023-04-07T11:24:39;0.90;;;0.70;;
37777;SDS011;23615;51.506;7.678;2023-04-07T11:27:05;0.70;;;0.60;;
37777;SDS011;23615;51.506;7.678;2023-04-07T11:29:36;0.85;;;0.80;;
37777;SDS011;23615;51.506;7.678;2023-04-07T11:32:02;0.75;;;0.60;;
37777;SDS011;23615;51.506;7.678;2023-04-07T11:34:28;1.40;;;0.80;;
37777;SDS011;23615;51.506;7.678;2023-04-07T11:37:17;0.80;;;0.43;;
37777;SDS011;23615;51.506;7.678;2023-04-07T11:39:52;0.70;;;0.70;;
37777;SDS011;23615;51.506;7.678;2023-04-07T11:42:33;0.50;;;0.47;;
37777;SDS011;23615;51.506;7.678;2023-04-07T11:45:00;0.50;;;0.50;;
37777;SDS011;23615;51.506;7.678;2023-04-07T11:47:38;0.83;;;0.57;;
37777;SDS011;23615;51.506;7.678;2023-04-07T11:50:04;0.40;;;0.38;;
37777;SDS011;23615;51.506;7.678;2023-04-07T11:52:43;0.30;;;0.30;;
37777;SDS011;23615;51.506;7.678;2023-04-07T11:55:20;0.70;;;0.40;;
37777;SDS011;23615;51.506;7.678;2023-04-07T11:57:48;0.52;;;0.52;;
37777;SDS011;23615;51.506;7.678;2023-04-07T12:00:15;0.60;;;0.60;;
37777;SDS011;23615;51.506;7.678;2023-04-07T12:02:42;0.30;;;0.30;;
37777;SDS011;23615;51.506;7.678;2023-04-07T12:05:08;0.60;;;0.30;;
37777;SDS011;23615;51.506;7.678;2023-04-07T12:07:34;0.30;;;0.20;;
37777;SDS011;23615;51.506;7.678;2023-04-07T12:10:22;0.20;;;0.20;;
37777;SDS011;23615;51.506;7.678;2023-04-07T12:12:50;0.40;;;0.40;;
37777;SDS011;23615;51.506;7.678;2023-04-07T12:15:16;0.20;;;0.20;;
37777;SDS011;23615;51.506;7.678;2023-04-07T12:17:45;0.20;;;0.10;;
37777;SDS011;23615;51.506;7.678;2023-04-07T12:20:11;0.10;;;0.10;;
37777;SDS011;23615;51.506;7.678;2023-04-07T12:22:37;0.10;;;0.10;;
37777;SDS011;23615;51.506;7.678;2023-04-07T12:25:02;0.50;;;0.10;;
37777;SDS011;23615;51.506;7.678;2023-04-07T12:27:28;0.10;;;0.10;;
37777;SDS011;23615;51.506;7.678;2023-04-07T12:29:53;0.20;;;0.20;;
37777;SDS011;23615;51.506;7.678;2023-04-07T12:32:18;0.20;;;0.17;;
37777;SDS011;23615;51.506;7.678;2023-04-07T12:34:43;0.23;;;0.23;;
37777;SDS011;23615;51.506;7.678;2023-04-07T12:37:09;1.10;;;0.23;;
37777;SDS011;23615;51.506;7.678;2023-04-07T12:39:34;0.22;;;0.20;;
37777;SDS011;23615;51.506;7.678;2023-04-07T12:41:59;0.20;;;0.20;;
37777;SDS011;23615;51.506;7.678;2023-04-07T12:44:25;0.30;;;0.30;;
37777;SDS011;23615;51.506;7.678;2023-04-07T12:46:50;0.10;;;0.10;;
37777;SDS011;23615;51.506;7.678;2023-04-07T12:49:16;0.20;;;0.20;;
37777;SDS011;23615;51.506;7.678;2023-04-07T12:51:41;0.60;;;0.20;;
37777;SDS011;23615;51.506;7.678;2023-04-07T12:54:06;0.20;;;0.20;;
37777;SDS011;23615;51.506;7.678;2023-04-07T12:56:32;0.10;;;0.10;;
37777;SDS011;23615;51.506;7.678;2023-04-07T12:58:57;0.60;;;0.20;;
37777;SDS011;23615;51.506;7.678;2023-04-07T13:01:22;0.20;;;0.20;;
37777;SDS011;23615;51.506;7.678;2023-04-07T13:03:47;0.30;;;0.20;;
37777;SDS011;23615;51.506;7.678;2023-04-07T13:06:13;0.30;;;0.20;;
37777;SDS011;23615;51.506;7.678;2023-04-07T13:08:39;0.23;;;0.23;;
37777;SDS011;23615;51.506;7.678;2023-04-07T13:11:04;0.20;;;0.20;;
37777;SDS011;23615;51.506;7.678;2023-04-07T13:13:30;0.40;;;0.20;;
37777;SDS011;23615;51.506;7.678;2023-04-07T13:15:56;0.20;;;0.20;;
37777;SDS011;23615;51.506;7.678;2023-04-07T13:18:21;0.20;;;0.20;;
37777;SDS011;23615;51.506;7.678;2023-04-07T13:20:47;0.40;;;0.20;;
37777;SDS011;23615;51.506;7.678;2023-04-07T13:23:12;0.20;;;0.20;;
37777;SDS011;23615;51.506;7.678;2023-04-07T13:25:38;0.20;;;0.20;;
37777;SDS011;23615;51.506;7.678;2023-04-07T13:28:03;1.70;;;1.43;;
37777;SDS011;23615;51.506;7.678;2023-04-07T13:30:29;0.60;;;0.40;;
37777;SDS011;23615;51.506;7.678;2023-04-07T13:32:55;0.30;;;0.20;;
37777;SDS011;23615;51.506;7.678;2023-04-07T13:35:21;0.20;;;0.20;;
37777;SDS011;23615;51.506;7.678;2023-04-07T13:37:46;0.43;;;0.20;;
37777;SDS011;23615;51.506;7.678;2023-04-07T13:40:11;0.30;;;0.20;;
37777;SDS011;23615;51.506;7.678;2023-04-07T13:42:37;0.30;;;0.30;;
37777;SDS011;23615;51.506;7.678;2023-04-07T13:45:03;0.22;;;0.20;;
37777;SDS011;23615;51.506;7.678;2023-04-07T13:47:28;0.20;;;0.20;;
37777;SDS011;23615;51.506;7.678;2023-04-07T13:49:58;0.20;;;0.20;;
37777;SDS011;23615;51.506;7.678;2023-04-07T13:52:24;0.20;;;0.20;;
37777;SDS011;23615;51.506;7.678;2023-04-07T13:54:50;0.17;;;0.17;;
37777;SDS011;23615;51.506;7.678;2023-04-07T13:57:16;0.20;;;0.20;;
37777;SDS011;23615;51.506;7.678;2023-04-07T13:59:44;0.50;;;0.20;;
37777;SDS011;23615;51.506;7.678;2023-04-07T14:02:10;0.30;;;0.20;;
37777;SDS011;23615;51.506;7.678;2023-04-07T14:04:36;0.30;;;0.30;;
37777;SDS011;23615;51.506;7.678;2023-04-07T14:07:01;0.30;;;0.20;;
37777;SDS011;23615;51.506;7.678;2023-04-07T14:09:27;1.47;;;1.33;;
37777;SDS011;23615;51.506;7.678;2023-04-07T14:11:53;0.63;;;0.50;;
37777;SDS011;23615;51.506;7.678;2023-04-07T14:14:18;0.27;;;0.27;;
37777;SDS011;23615;51.506;7.678;2023-04-07T14:16:43;0.43;;;0.27;;
37777;SDS011;23615;51.506;7.678;2023-04-07T14:19:08;0.20;;;0.20;;
37777;SDS011;23615;51.506;7.678;2023-04-07T14:21:34;0.25;;;0.25;;
37777;SDS011;23615;51.506;7.678;2023-04-07T14:23:59;0.40;;;0.27;;
37777;SDS011;23615;51.506;7.678;2023-04-07T14:26:24;0.30;;;0.30;;
37777;SDS011;23615;51.506;7.678;2023-04-07T14:28:51;0.30;;;0.30;;
37777;SDS011;23615;51.506;7.678;2023-04-07T14:31:16;0.23;;;0.23;;
37777;SDS011;23615;51.506;7.678;2023-04-07T14:33:42;0.40;;;0.40;;
37777;SDS011;23615;51.506;7.678;2023-04-07T14:36:08;0.30;;;0.30;;
37777;SDS011;23615;51.506;7.678;2023-04-07T14:38:33;1.00;;;0.40;;
37777;SDS011;23615;51.506;7.678;2023-04-07T14:40:59;0.30;;;0.30;;
37777;SDS011;23615;51.506;7.678;2023-04-07T14:43:28;0.60;;;0.40;;
37777;SDS011;23615;51.506;7.678;2023-04-07T14:45:54;0.40;;;0.40;;
37777;SDS011;23615;51.506;7.678;2023-04-07T14:48:19;0.90;;;0.40;;
37777;SDS011;23615;51.506;7.678;2023-04-07T14:50:45;0.20;;;0.20;;
37777;SDS011;23615;51.506;7.678;2023-04-07T14:53:11;0.47;;;0.47;;
37777;SDS011;23615;51.506;7.678;2023-04-07T14:55:37;0.27;;;0.27;;
37777;SDS011;23615;51.506;7.678;2023-04-07T14:58:02;0.70;;;0.43;;
37777;SDS011;23615;51.506;7.678;2023-04-07T15:00:27;0.40;;;0.30;;
37777;SDS011;23615;51.506;7.678;2023-04-07T15:02:53;0.77;;;0.50;;